Time,TemperatureF,DewpointF,PressureIn,WindDirection,WindDirectionDegrees,WindSpeedMPH,WindSpeedGustMPH,Humidity,HourlyPrecipIn,Conditions,Clouds,dailyrainin,SoftwareType,DateUTC
2013-02-12 00:02:00,31.5,2.1,30.32,WSW,248,4.0,9.4,28,0.00,,CLR,0.00,VWS V14.00,2013-02-12 08:02:00,
2013-02-12 00:32:00,30.6,1.4,30.32,WSW,241,4.7,8.1,28,0.00,,CLR,0.00,VWS V14.00,2013-02-12 08:32:00,
2013-02-12 01:02:00,30.0,0.9,30.32,WSW,248,5.4,8.7,28,0.00,,CLR,0.00,VWS V14.00,2013-02-12 09:02:00,
2013-02-12 01:32:00,29.5,0.4,30.32,WSW,240,7.4,7.4,28,0.00,,CLR,0.00,VWS V14.00,2013-02-12 09:32:00,
2013-02-12 02:02:00,28.2,-0.7,30.32,WSW,241,3.4,7.4,28,0.00,,CLR,0.00,VWS V14.00,2013-02-12 10:02:00,
2013-02-12 02:32:00,27.0,0.4,30.32,WSW,239,4.7,6.0,31,0.00,,CLR,0.00,VWS V14.00,2013-02-12 10:32:00,
2013-02-12 03:02:00,25.7,-0.1,30.32,SW,230,0.0,6.0,32,0.00,,CLR,0.00,VWS V14.00,2013-02-12 11:02:00,
2013-02-12 03:32:00,26.2,1.7,30.32,SW,230,0.0,5.4,34,0.00,,CLR,0.00,VWS V14.00,2013-02-12 11:32:00,
2013-02-12 04:02:00,26.2,1.7,30.32,SW,230,4.7,6.0,34,0.00,,CLR,0.00,VWS V14.00,2013-02-12 12:02:00,
2013-02-12 04:32:00,26.1,1.5,30.32,SW,231,5.4,6.0,34,0.00,,CLR,0.00,VWS V14.00,2013-02-12 12:32:00,
2013-02-12 05:02:00,25.7,1.2,30.35,SW,231,0.0,6.0,34,0.00,,CLR,0.00,VWS V14.00,2013-02-12 13:02:00,
2013-02-12 05:32:00,25.7,1.2,30.35,SW,231,5.4,6.0,34,0.00,,CLR,0.00,VWS V14.00,2013-02-12 13:32:00,
2013-02-12 06:02:00,26.1,1.5,30.35,SW,231,5.4,6.7,34,0.00,,CLR,0.00,VWS V14.00,2013-02-12 14:02:00,
2013-02-12 06:32:00,26.1,1.5,30.35,SW,231,5.4,6.7,34,0.00,,CLR,0.00,VWS V14.00,2013-02-12 14:32:00,
2013-02-12 07:02:00,26.6,2.0,30.37,SW,234,5.4,7.4,34,0.00,,CLR,0.00,VWS V14.00,2013-02-12 15:02:00,
2013-02-12 07:32:00,33.3,5.9,30.37,WSW,250,4.7,7.4,31,0.00,,CLR,0.00,VWS V14.00,2013-02-12 15:32:00,
2013-02-12 08:02:00,33.3,5.9,30.37,West,264,4.0,6.0,31,0.00,,CLR,0.00,VWS V14.00,2013-02-12 16:02:00,
2013-02-12 08:32:00,42.4,7.3,30.40,North,350,4.7,8.1,23,0.00,,CLR,0.00,VWS V14.00,2013-02-12 16:32:00,
2013-02-12 09:02:00,47.3,10.4,30.40,North,353,4.7,8.7,22,0.00,,CLR,0.00,VWS V14.00,2013-02-12 17:02:00,
2013-02-12 09:32:00,48.0,11.0,30.40,North,9,4.7,8.7,22,0.00,,CLR,0.00,VWS V14.00,2013-02-12 17:32:00,
2013-02-12 10:02:00,47.8,10.9,30.40,NNE,12,6.0,10.7,22,0.00,,CLR,0.00,VWS V14.00,2013-02-12 18:02:00,
2013-02-12 10:32:00,49.1,10.9,30.40,NE,37,8.7,12.4,21,0.00,,CLR,0.00,VWS V14.00,2013-02-12 18:32:00,
2013-02-12 11:02:00,49.1,10.9,30.40,North,0,8.7,15.1,21,0.00,,CLR,0.00,VWS V14.00,2013-02-12 19:02:00,
2013-02-12 11:32:00,49.3,11.0,30.40,North,1,6.0,12.4,21,0.00,,,0.00,VWS V14.00,2013-02-12 19:32:00,
2013-02-12 12:02:00,50.0,11.6,30.40,North,357,4.0,14.4,21,0.00,,,0.00,VWS V14.00,2013-02-12 20:02:00,
2013-02-12 12:33:00,50.7,12.2,30.37,North,7,14.4,17.1,21,0.00,,,0.00,VWS V14.00,2013-02-12 20:33:00,
2013-02-12 13:03:00,52.2,13.4,30.37,WSW,254,6.0,15.1,21,0.00,,,0.00,VWS V14.00,2013-02-12 21:03:00,
2013-02-12 13:33:00,52.3,13.6,30.35,NNW,338,12.4,13.1,21,0.00,,CLR,0.00,VWS V14.00,2013-02-12 21:33:00,
2013-02-12 14:03:00,53.1,14.2,30.35,North,7,13.1,15.8,21,0.00,,CLR,0.00,VWS V14.00,2013-02-12 22:03:00,
2013-02-12 14:33:00,53.4,14.5,30.35,NNW,340,8.1,13.1,21,0.00,,,0.00,VWS V14.00,2013-02-12 22:33:00,
2013-02-12 15:02:00,53.1,14.2,30.35,NNW,327,5.4,17.1,21,0.00,,,0.00,VWS V14.00,2013-02-12 23:02:00,
2013-02-12 15:32:00,53.1,14.2,30.35,North,1,9.4,15.8,21,0.00,,,0.00,VWS V14.00,2013-02-12 23:32:00,
2013-02-12 16:02:00,52.9,14.0,30.35,NNW,327,8.7,15.1,21,0.00,,,0.00,VWS V14.00,2013-02-13 00:02:00,
2013-02-12 16:32:00,51.3,12.7,30.35,North,7,8.1,15.8,21,0.00,,,0.00,VWS V14.00,2013-02-13 00:32:00,
2013-02-12 17:02:00,49.8,9.2,30.35,North,353,9.4,15.1,19,0.00,,,0.00,VWS V14.00,2013-02-13 01:02:00,
2013-02-12 17:32:00,47.1,7.0,30.35,NNW,340,0.0,9.4,19,0.00,,CLR,0.00,VWS V14.00,2013-02-13 01:32:00,
2013-02-12 18:02:00,45.9,7.1,30.35,NNW,336,0.0,5.4,20,0.00,,CLR,0.00,VWS V14.00,2013-02-13 02:02:00,
2013-02-12 18:32:00,41.2,6.2,30.35,NNW,336,0.0,0.0,23,0.00,,CLR,0.00,VWS V14.00,2013-02-13 02:32:00,
2013-02-12 19:02:00,37.8,4.2,30.35,WSW,252,4.0,6.0,24,0.00,,CLR,0.00,VWS V14.00,2013-02-13 03:02:00,
2013-02-12 19:32:00,37.9,4.4,30.35,WSW,258,4.0,6.0,24,0.00,,CLR,0.00,VWS V14.00,2013-02-13 03:32:00,
2013-02-12 20:02:00,37.9,4.4,30.35,WSW,252,4.0,6.0,24,0.00,,CLR,0.00,VWS V14.00,2013-02-13 04:02:00,
2013-02-12 20:32:00,37.9,4.4,30.35,WSW,249,4.7,6.0,24,0.00,,CLR,0.00,VWS V14.00,2013-02-13 04:32:00,
2013-02-12 21:02:00,37.9,4.4,30.37,WSW,239,5.4,6.0,24,0.00,,CLR,0.00,VWS V14.00,2013-02-13 05:02:00,
2013-02-12 21:32:00,37.9,4.4,30.35,WSW,240,0.0,6.0,24,0.00,,CLR,0.00,VWS V14.00,2013-02-13 05:32:00,
2013-02-12 22:02:00,37.9,4.4,30.37,WSW,240,4.0,5.4,24,0.00,,CLR,0.00,VWS V14.00,2013-02-13 06:02:00,
2013-02-12 22:32:00,34.2,6.0,30.37,WSW,238,5.4,6.0,30,0.00,,CLR,0.00,VWS V14.00,2013-02-13 06:32:00,
2013-02-12 23:02:00,34.2,6.0,30.35,WSW,239,5.4,6.0,30,0.00,,CLR,0.00,VWS V14.00,2013-02-13 07:02:00,
2013-02-12 23:32:00,34.2,6.0,30.35,WSW,238,5.4,7.4,30,0.00,,CLR,0.00,VWS V14.00,2013-02-13 07:32:00,